createdAt,value
2022-09-15T00:01:13.607Z,4.95
2022-09-15T00:06:14.718Z,3.97
2022-09-15T00:11:17.242Z,4.05
2022-09-15T00:16:16.414Z,2.42
2022-09-15T00:21:15.507Z,1.70
2022-09-15T00:26:16.296Z,5.05
2022-09-15T00:31:16.688Z,6.03
2022-09-15T00:36:15.345Z,2.20
2022-09-15T00:41:16.944Z,2.17
2022-09-15T00:46:15.839Z,3.33
2022-09-15T00:51:16.603Z,3.67
2022-09-15T00:56:16.577Z,2.33
2022-09-15T01:01:15.445Z,4.25
2022-09-15T01:06:16.355Z,2.60
2022-09-15T01:11:17.116Z,1.95
2022-09-15T01:16:19.385Z,2.35
2022-09-15T01:21:23.152Z,2.00
2022-09-15T01:26:42.363Z,1.60
2022-09-15T01:32:04.807Z,2.47
2022-09-15T01:37:04.573Z,4.13
2022-09-15T01:42:04.962Z,4.05
2022-09-15T01:47:06.613Z,3.35
2022-09-15T01:52:05.177Z,5.82
2022-09-15T01:57:03.584Z,4.93
2022-09-15T02:02:05.980Z,1.65
2022-09-15T02:07:08.073Z,2.63
2022-09-15T02:12:09.163Z,3.75
2022-09-15T02:17:11.980Z,3.63
2022-09-15T02:22:12.720Z,3.92
2022-09-15T02:27:12.704Z,4.70
2022-09-15T02:32:13.563Z,3.53
2022-09-15T02:37:12.629Z,1.63
2022-09-15T02:42:11.296Z,1.60
2022-09-15T02:47:09.635Z,2.50
2022-09-15T02:52:09.216Z,2.83
2022-09-15T02:57:07.602Z,1.98
2022-09-15T03:02:05.895Z,4.93
2022-09-15T03:07:04.298Z,3.65
2022-09-15T03:12:04.088Z,2.70
2022-09-15T03:17:02.372Z,3.35
2022-09-15T03:22:00.514Z,1.45
2022-09-15T03:26:58.725Z,3.58
2022-09-15T03:31:58.488Z,3.38
2022-09-15T03:36:56.731Z,4.25
2022-09-15T03:41:55.013Z,4.03
2022-09-15T03:46:53.262Z,3.47
2022-09-15T03:51:52.990Z,1.40
2022-09-15T03:56:52.066Z,1.75
2022-09-15T04:01:50.356Z,2.20
2022-09-15T04:06:48.657Z,3.47
2022-09-15T04:11:48.261Z,1.75
2022-09-15T04:16:46.674Z,5.10
2022-09-15T04:21:45.815Z,10.70
2022-09-15T04:26:44.658Z,4.70
2022-09-15T04:31:44.742Z,7.57
2022-09-15T04:36:43.039Z,4.07
2022-09-15T04:41:41.256Z,2.08
2022-09-15T04:46:39.598Z,6.60
2022-09-15T04:51:39.212Z,2.33
2022-09-15T04:56:37.349Z,4.82
2022-09-15T05:01:36.233Z,12.88
2022-09-15T05:06:35.022Z,5.15
2022-09-15T05:11:34.700Z,5.00
2022-09-15T05:16:32.938Z,4.20
2022-09-15T05:21:31.581Z,3.92
2022-09-15T05:26:30.589Z,4.25
2022-09-15T05:31:31.715Z,4.03
2022-09-15T05:36:30.088Z,2.90
2022-09-15T05:41:28.857Z,2.60
2022-09-15T05:46:28.033Z,8.43
2022-09-15T05:51:27.755Z,4.88
2022-09-15T05:56:25.960Z,2.53
2022-09-15T06:01:24.898Z,6.03
2022-09-15T06:06:23.594Z,5.88
2022-09-15T06:11:23.939Z,9.85
2022-09-15T06:16:22.936Z,6.45
2022-09-15T06:21:22.421Z,3.90
2022-09-15T06:26:21.074Z,4.38
2022-09-15T06:31:20.627Z,15.63
2022-09-15T06:36:19.552Z,6.75
2022-09-15T06:41:17.741Z,5.30
2022-09-15T06:46:17.154Z,3.35
2022-09-15T06:51:17.468Z,2.97
2022-09-15T06:56:16.395Z,8.02
2022-09-15T07:01:15.211Z,4.38
2022-09-15T07:06:13.356Z,6.28
2022-09-15T07:11:12.885Z,2.40
2022-09-15T07:16:12.058Z,4.53
2022-09-15T07:21:11.980Z,9.20
2022-09-15T07:26:11.244Z,5.32
2022-09-15T07:31:11.664Z,2.83
2022-09-15T07:36:10.425Z,5.43
2022-09-15T07:41:10.901Z,6.95
2022-09-15T07:46:10.588Z,6.00
2022-09-15T07:51:08.761Z,6.90
2022-09-15T07:56:07.471Z,4.70
2022-09-15T08:01:06.367Z,6.90
2022-09-15T08:06:05.987Z,6.75
2022-09-15T08:11:07.073Z,6.90
2022-09-15T08:16:08.694Z,5.55
2022-09-15T08:21:09.520Z,6.28
2022-09-15T08:26:13.114Z,5.88
2022-09-15T08:31:13.918Z,5.65
2022-09-15T08:36:13.816Z,4.40
2022-09-15T08:41:14.819Z,9.00
2022-09-15T08:46:16.317Z,6.30
2022-09-15T08:51:20.552Z,3.63
2022-09-15T08:56:20.737Z,5.18
2022-09-15T09:01:25.686Z,5.95
2022-09-15T09:06:28.737Z,4.85
2022-09-15T09:11:32.491Z,10.27
2022-09-15T09:21:31.649Z,5.85
2022-09-15T09:26:30.973Z,5.43
2022-09-15T09:31:29.605Z,6.22
2022-09-15T09:36:27.931Z,8.93
2022-09-15T09:41:35.715Z,6.45
2022-09-15T09:46:34.735Z,10.98
2022-09-15T09:51:37.631Z,4.95
2022-09-15T09:56:37.212Z,7.23
2022-09-15T10:01:35.463Z,4.65
2022-09-15T10:06:35.433Z,8.88
2022-09-15T10:11:41.965Z,7.70
2022-09-15T10:16:40.202Z,6.38
2022-09-15T10:21:39.983Z,6.90
2022-09-15T10:26:38.672Z,11.05
2022-09-15T10:31:38.493Z,7.40
2022-09-15T10:36:36.840Z,10.00
2022-09-15T10:41:37.142Z,7.10
2022-09-15T10:46:42.202Z,9.55
2022-09-15T10:51:51.461Z,11.15
2022-09-15T10:56:50.542Z,13.18
2022-09-15T11:02:01.303Z,11.00
2022-09-15T11:07:05.491Z,11.02
2022-09-15T11:12:10.016Z,4.50
2022-09-15T11:17:17.492Z,12.40
2022-09-15T11:22:18.418Z,7.53
2022-09-15T11:27:19.971Z,10.38
2022-09-15T11:32:22.113Z,8.82
2022-09-15T11:37:23.809Z,20.23
2022-09-15T11:42:26.252Z,11.63
2022-09-15T11:47:27.439Z,15.90
2022-09-15T11:52:35.224Z,10.27
2022-09-15T11:57:36.002Z,9.50
2022-09-15T12:02:36.108Z,6.45
2022-09-15T12:07:38.661Z,11.50
2022-09-15T12:12:37.313Z,18.03
2022-09-15T12:17:38.651Z,11.77
2022-09-15T12:22:42.054Z,18.70
2022-09-15T12:32:40.390Z,15.27
2022-09-15T12:37:41.338Z,9.63
2022-09-15T12:42:46.265Z,10.57
2022-09-15T12:47:50.852Z,17.20
2022-09-15T12:52:51.713Z,13.32
2022-09-15T12:57:54.276Z,14.05
2022-09-15T13:02:52.711Z,13.03
2022-09-15T13:07:56.421Z,8.32
2022-09-15T13:12:58.131Z,9.98
2022-09-15T13:17:57.503Z,13.55
2022-09-15T13:22:57.217Z,7.65
2022-09-15T13:27:56.263Z,9.48
2022-09-15T13:32:56.847Z,13.25
2022-09-15T13:38:19.940Z,10.73
2022-09-15T13:43:28.727Z,11.80
2022-09-15T13:48:40.889Z,8.25
2022-09-15T13:53:44.603Z,11.05
2022-09-15T13:59:05.669Z,11.45
2022-09-15T14:04:04.445Z,9.90
2022-09-15T14:09:07.443Z,11.23
2022-09-15T14:14:07.724Z,5.38
2022-09-15T14:19:23.258Z,8.32
2022-09-15T14:24:23.411Z,12.95
2022-09-15T14:29:22.505Z,13.57
2022-09-15T14:34:22.184Z,7.78
2022-09-15T14:39:21.746Z,10.65
2022-09-15T14:49:46.844Z,8.38
2022-09-15T14:54:45.032Z,15.65
2022-09-15T14:59:48.890Z,10.88
2022-09-15T15:04:50.376Z,17.40
2022-09-15T15:09:49.225Z,9.77
2022-09-15T15:14:48.849Z,13.50
2022-09-15T15:19:48.002Z,9.43
2022-09-15T15:24:47.122Z,9.32
2022-09-15T15:29:45.975Z,10.50
2022-09-15T15:34:55.801Z,16.15
2022-09-15T15:39:54.738Z,12.10
2022-09-15T15:45:00.171Z,12.77
2022-09-15T15:50:12.875Z,10.55
2022-09-15T15:55:14.408Z,8.68
2022-09-15T16:00:21.090Z,11.00
2022-09-15T16:05:22.200Z,11.00
2022-09-15T16:10:22.113Z,12.32
2022-09-15T16:15:21.465Z,12.77
2022-09-15T16:20:23.460Z,11.20
2022-09-15T16:25:24.613Z,13.70
2022-09-15T16:30:23.039Z,9.95
2022-09-15T16:35:25.966Z,9.73
2022-09-15T16:40:24.386Z,8.90
2022-09-15T16:45:24.985Z,13.23
2022-09-15T16:50:24.479Z,12.93
2022-09-15T16:55:24.533Z,10.07
2022-09-15T17:00:22.726Z,15.13
2022-09-15T17:05:21.683Z,7.10
2022-09-15T17:10:21.293Z,6.28
2022-09-15T17:15:23.945Z,13.32
2022-09-15T17:20:22.433Z,10.00
2022-09-15T17:25:24.441Z,17.15
2022-09-15T17:30:23.459Z,17.08
2022-09-15T17:35:23.040Z,10.50
2022-09-15T17:40:22.893Z,11.95
2022-09-15T17:45:23.038Z,10.32
2022-09-15T17:50:25.347Z,16.10
2022-09-15T17:55:28.100Z,21.40
2022-09-15T18:00:27.040Z,19.87
2022-09-15T18:05:26.018Z,24.27
2022-09-15T18:10:26.182Z,20.13
2022-09-15T18:15:26.091Z,12.45
2022-09-15T18:20:25.082Z,7.50
2022-09-15T18:25:24.881Z,9.20
2022-09-15T18:30:26.478Z,10.85
2022-09-15T18:35:25.020Z,10.95
2022-09-15T18:40:23.613Z,11.88
2022-09-15T18:45:21.888Z,13.13
2022-09-15T18:50:22.313Z,12.20
2022-09-15T18:55:21.693Z,12.02
2022-09-15T19:00:21.077Z,14.65
2022-09-15T19:05:19.333Z,9.63
2022-09-15T19:10:18.933Z,7.32
2022-09-15T19:15:17.105Z,12.52
2022-09-15T19:20:16.164Z,15.73
2022-09-15T19:25:14.773Z,13.75
2022-09-15T19:30:14.585Z,11.30
2022-09-15T19:35:12.757Z,7.78
2022-09-15T19:40:12.472Z,10.20
2022-09-15T19:45:11.484Z,11.63
2022-09-15T19:50:12.345Z,12.05
2022-09-15T19:55:12.095Z,14.30
2022-09-15T20:00:11.732Z,8.90
2022-09-15T20:05:12.541Z,15.98
2022-09-15T20:10:11.330Z,8.00
2022-09-15T20:15:10.416Z,10.40
2022-09-15T20:20:09.088Z,8.95
2022-09-15T20:25:09.154Z,11.25
2022-09-15T20:30:07.946Z,5.20
2022-09-15T20:35:06.545Z,12.52
2022-09-15T20:40:05.015Z,10.93
2022-09-15T20:45:04.830Z,6.65
2022-09-15T20:50:03.324Z,5.45
2022-09-15T20:55:01.796Z,8.88
2022-09-15T21:00:00.045Z,12.18
2022-09-15T21:05:01.279Z,9.80
2022-09-15T21:09:59.553Z,12.77
2022-09-15T21:14:57.964Z,11.93
2022-09-15T21:19:56.120Z,8.90
2022-09-15T21:24:55.712Z,12.98
2022-09-15T21:29:54.495Z,7.43
2022-09-15T21:34:52.724Z,8.20
2022-09-15T21:39:53.099Z,5.45
2022-09-15T21:44:52.982Z,12.73
2022-09-15T21:49:54.199Z,7.05
2022-09-15T21:54:52.798Z,9.30
2022-09-15T21:59:52.351Z,5.90
2022-09-15T22:04:52.499Z,12.32
2022-09-15T22:09:51.125Z,8.07
2022-09-15T22:14:49.641Z,7.15
2022-09-15T22:19:49.273Z,13.32
2022-09-15T22:24:49.123Z,9.77
2022-09-15T22:29:47.264Z,9.90
2022-09-15T22:34:45.802Z,11.52
2022-09-15T22:39:58.431Z,8.65
2022-09-15T22:44:57.310Z,8.05
2022-09-15T22:49:55.661Z,5.68
2022-09-15T22:54:55.187Z,4.85
2022-09-15T22:59:53.488Z,9.20
2022-09-15T23:04:51.969Z,5.90
2022-09-15T23:09:50.147Z,10.85
2022-09-15T23:14:49.688Z,5.43
2022-09-15T23:19:47.867Z,6.18
2022-09-15T23:24:46.120Z,5.88
2022-09-15T23:29:44.372Z,10.32
2022-09-15T23:34:43.975Z,11.48
2022-09-15T23:39:42.166Z,8.57
2022-09-15T23:44:40.434Z,3.95
2022-09-15T23:49:38.677Z,6.65
2022-09-15T23:54:38.278Z,9.40
2022-09-15T23:59:36.473Z,7.15
